Terminal Aerodrome Forecast
Issued by NWS

Home | Current Version | Previous Version | Text Only | Print | Product List | Glossary On
Versions: 1 2 3 4 5 6 7 8 9 10 11 12 13 14 15 16 17 18 19 20 21 22 23 24 25 26 27 28
825
FTUS46 KPDT 241126
TAFYKM
TAF
KYKM 241126Z 2412/2512 26005KT 1/2SM FZFG OVC002
     FM241600 VRB05KT 2SM BR OVC004
     FM241900 VRB05KT 6SM BR OVC012
     FM250300 27005KT 3SM BR OVC009=

USA.gov is the U.S. government's official web portal to all federal, state and local government web resources and services.